sensor_id;sensor_type;location;lat;lon;timestamp;pressure;altitude;pressure_sealevel;temperature
78905;BMP280;68291;49.602;8.722;2023-06-26T00:01:49;99399.81;;;21.28
78905;BMP280;68291;49.602;8.722;2023-06-26T00:04:21;99406.59;;;21.21
78905;BMP280;68291;49.602;8.722;2023-06-26T00:07:22;99394.88;;;21.06
78905;BMP280;68291;49.602;8.722;2023-06-26T00:10:08;99396.94;;;21.03
78905;BMP280;68291;49.602;8.722;2023-06-26T00:12:41;99394.75;;;20.98
78905;BMP280;68291;49.602;8.722;2023-06-26T00:15:17;99401.22;;;20.94
78905;BMP280;68291;49.602;8.722;2023-06-26T00:17:58;99398.19;;;20.90
78905;BMP280;68291;49.602;8.722;2023-06-26T00:20:29;99393.31;;;20.85
78905;BMP280;68291;49.602;8.722;2023-06-26T00:23:18;99399.13;;;20.89
78905;BMP280;68291;49.602;8.722;2023-06-26T00:25:52;99399.13;;;20.89
78905;BMP280;68291;49.602;8.722;2023-06-26T00:28:32;99397.50;;;20.88
78905;BMP280;68291;49.602;8.722;2023-06-26T00:31:04;99400.22;;;20.86
78905;BMP280;68291;49.602;8.722;2023-06-26T00:33:45;99394.44;;;20.83
78905;BMP280;68291;49.602;8.722;2023-06-26T00:36:20;99394.72;;;20.80
78905;BMP280;68291;49.602;8.722;2023-06-26T00:38:52;99397.16;;;20.72
78905;BMP280;68291;49.602;8.722;2023-06-26T00:41:44;99389.88;;;20.66
78905;BMP280;68291;49.602;8.722;2023-06-26T00:44:31;99391.09;;;20.62
78905;BMP280;68291;49.602;8.722;2023-06-26T00:47:15;99377.81;;;20.54
78905;BMP280;68291;49.602;8.722;2023-06-26T00:49:50;99396.41;;;20.51
78905;BMP280;68291;49.602;8.722;2023-06-26T00:52:33;99396.41;;;20.51
78905;BMP280;68291;49.602;8.722;2023-06-26T00:55:13;99391.03;;;20.53
78905;BMP280;68291;49.602;8.722;2023-06-26T00:57:56;99385.25;;;20.49
78905;BMP280;68291;49.602;8.722;2023-06-26T01:00:53;99393.75;;;20.42
78905;BMP280;68291;49.602;8.722;2023-06-26T01:03:28;99382.03;;;20.36
78905;BMP280;68291;49.602;8.722;2023-06-26T01:06:05;99389.91;;;20.36
78905;BMP280;68291;49.602;8.722;2023-06-26T01:08:46;99376.81;;;20.36
78905;BMP280;68291;49.602;8.722;2023-06-26T01:11:37;99381.59;;;20.31
78905;BMP280;68291;49.602;8.722;2023-06-26T01:14:08;99375.25;;;20.24
78905;BMP280;68291;49.602;8.722;2023-06-26T01:17:19;99377.00;;;20.15
78905;BMP280;68291;49.602;8.722;2023-06-26T01:19:53;99373.72;;;20.13
78905;BMP280;68291;49.602;8.722;2023-06-26T01:22:43;99369.41;;;20.12
78905;BMP280;68291;49.602;8.722;2023-06-26T01:25:56;99368.28;;;20.05
78905;BMP280;68291;49.602;8.722;2023-06-26T01:29:00;99357.94;;;19.94
78905;BMP280;68291;49.602;8.722;2023-06-26T01:31:42;99361.06;;;19.88
78905;BMP280;68291;49.602;8.722;2023-06-26T01:34:20;99361.34;;;19.85
78905;BMP280;68291;49.602;8.722;2023-06-26T01:36:56;99352.78;;;19.83
78905;BMP280;68291;49.602;8.722;2023-06-26T01:39:27;99357.19;;;19.83
78905;BMP280;68291;49.602;8.722;2023-06-26T01:42:12;99354.00;;;19.79
78905;BMP280;68291;49.602;8.722;2023-06-26T01:45:18;99350.81;;;19.76
78905;BMP280;68291;49.602;8.722;2023-06-26T01:47:52;99357.69;;;19.77
78905;BMP280;68291;49.602;8.722;2023-06-26T01:50:41;99352.97;;;19.71
78905;BMP280;68291;49.602;8.722;2023-06-26T01:53:25;99351.44;;;19.68
78905;BMP280;68291;49.602;8.722;2023-06-26T01:56:06;99352.91;;;19.61
78905;BMP280;68291;49.602;8.722;2023-06-26T01:58:47;99354.13;;;19.57
78905;BMP280;68291;49.602;8.722;2023-06-26T02:01:41;99357.94;;;19.54
78905;BMP280;68291;49.602;8.722;2023-06-26T02:04:39;99360.13;;;19.49
78905;BMP280;68291;49.602;8.722;2023-06-26T02:07:32;99358.03;;;19.43
78905;BMP280;68291;49.602;8.722;2023-06-26T02:10:28;99347.25;;;19.36
78905;BMP280;68291;49.602;8.722;2023-06-26T02:13:15;99353.56;;;19.34
78905;BMP280;68291;49.602;8.722;2023-06-26T02:15:47;99358.78;;;19.34
78905;BMP280;68291;49.602;8.722;2023-06-26T02:18:40;99349.44;;;19.31
78905;BMP280;68291;49.602;8.722;2023-06-26T02:21:36;99352.44;;;19.27
78905;BMP280;68291;49.602;8.722;2023-06-26T02:24:13;99347.59;;;19.22
78905;BMP280;68291;49.602;8.722;2023-06-26T02:27:07;99344.66;;;19.16
78905;BMP280;68291;49.602;8.722;2023-06-26T02:29:48;99345.84;;;19.12
78905;BMP280;68291;49.602;8.722;2023-06-26T02:32:21;99344.44;;;19.08
78905;BMP280;68291;49.602;8.722;2023-06-26T02:35:24;99345.41;;;19.07
78905;BMP280;68291;49.602;8.722;2023-06-26T02:38:09;99346.22;;;19.08
78905;BMP280;68291;49.602;8.722;2023-06-26T02:40:52;99340.50;;;19.14
78905;BMP280;68291;49.602;8.722;2023-06-26T02:43:37;99342.97;;;19.15
78905;BMP280;68291;49.602;8.722;2023-06-26T02:46:11;99348.34;;;19.14
78905;BMP280;68291;49.602;8.722;2023-06-26T02:48:54;99353.25;;;19.07
78905;BMP280;68291;49.602;8.722;2023-06-26T02:51:35;99348.50;;;19.01
78905;BMP280;68291;49.602;8.722;2023-06-26T02:54:24;99349.72;;;18.97
78905;BMP280;68291;49.602;8.722;2023-06-26T02:57:01;99349.13;;;18.94
78905;BMP280;68291;49.602;8.722;2023-06-26T02:59:43;99352.44;;;18.96
78905;BMP280;68291;49.602;8.722;2023-06-26T03:02:29;99347.44;;;18.93
78905;BMP280;68291;49.602;8.722;2023-06-26T03:05:23;99347.56;;;18.91
78905;BMP280;68291;49.602;8.722;2023-06-26T03:08:12;99358.03;;;18.81
78905;BMP280;68291;49.602;8.722;2023-06-26T03:10:56;99354.97;;;18.76
78905;BMP280;68291;49.602;8.722;2023-06-26T03:13:51;99357.16;;;18.71
78905;BMP280;68291;49.602;8.722;2023-06-26T03:16:47;99365.91;;;18.70
78905;BMP280;68291;49.602;8.722;2023-06-26T03:19:21;99367.06;;;18.77
78905;BMP280;68291;49.602;8.722;2023-06-26T03:22:28;99360.91;;;18.78
78905;BMP280;68291;49.602;8.722;2023-06-26T03:25:08;99362.56;;;18.79
78905;BMP280;68291;49.602;8.722;2023-06-26T03:27:40;99365.69;;;18.73
78905;BMP280;68291;49.602;8.722;2023-06-26T03:30:13;99363.44;;;18.68
78905;BMP280;68291;49.602;8.722;2023-06-26T03:32:50;99360.94;;;18.67
78905;BMP280;68291;49.602;8.722;2023-06-26T03:35:27;99373.63;;;18.71
78905;BMP280;68291;49.602;8.722;2023-06-26T03:38:13;99368.50;;;18.70
78905;BMP280;68291;49.602;8.722;2023-06-26T03:41:29;99364.97;;;18.71
78905;BMP280;68291;49.602;8.722;2023-06-26T03:44:04;99366.88;;;18.69
78905;BMP280;68291;49.602;8.722;2023-06-26T03:46:49;99368.06;;;18.65
78905;BMP280;68291;49.602;8.722;2023-06-26T03:49:20;99362.97;;;18.63
78905;BMP280;68291;49.602;8.722;2023-06-26T03:52:07;99365.94;;;18.59
78905;BMP280;68291;49.602;8.722;2023-06-26T03:54:40;99364.28;;;18.58
78905;BMP280;68291;49.602;8.722;2023-06-26T03:57:47;99364.28;;;18.58
78905;BMP280;68291;49.602;8.722;2023-06-26T04:00:45;99366.91;;;18.58
78905;BMP280;68291;49.602;8.722;2023-06-26T04:03:42;99368.53;;;18.59
78905;BMP280;68291;49.602;8.722;2023-06-26T04:06:14;99366.19;;;18.56
78905;BMP280;68291;49.602;8.722;2023-06-26T04:08:47;99364.66;;;18.53
78905;BMP280;68291;49.602;8.722;2023-06-26T04:11:36;99365.00;;;18.60
78905;BMP280;68291;49.602;8.722;2023-06-26T04:14:29;99364.81;;;18.72
78905;BMP280;68291;49.602;8.722;2023-06-26T04:17:13;99369.66;;;18.77
78905;BMP280;68291;49.602;8.722;2023-06-26T04:19:45;99373.59;;;18.82
78905;BMP280;68291;49.602;8.722;2023-06-26T04:22:32;99370.72;;;18.85
78905;BMP280;68291;49.602;8.722;2023-06-26T04:25:05;99375.56;;;18.89
78905;BMP280;68291;49.602;8.722;2023-06-26T04:27:45;99380.44;;;18.94
78905;BMP280;68291;49.602;8.722;2023-06-26T04:30:41;99378.88;;;19.02
78905;BMP280;68291;49.602;8.722;2023-06-26T04:33:27;99367.66;;;19.11
78905;BMP280;68291;49.602;8.722;2023-06-26T04:36:09;99367.06;;;19.19
78905;BMP280;68291;49.602;8.722;2023-06-26T04:38:57;99367.50;;;19.23
78905;BMP280;68291;49.602;8.722;2023-06-26T04:41:49;99368.66;;;19.30
78905;BMP280;68291;49.602;8.722;2023-06-26T04:44:39;99364.59;;;19.37
78905;BMP280;68291;49.602;8.722;2023-06-26T04:47:28;99369.16;;;19.45
78905;BMP280;68291;49.602;8.722;2023-06-26T04:50:05;99368.56;;;19.52
78905;BMP280;68291;49.602;8.722;2023-06-26T04:52:37;99374.09;;;19.58
78905;BMP280;68291;49.602;8.722;2023-06-26T04:55:09;99367.50;;;19.64
78905;BMP280;68291;49.602;8.722;2023-06-26T04:57:43;99368.78;;;19.69
78905;BMP280;68291;49.602;8.722;2023-06-26T05:00:29;99367.53;;;19.73
78905;BMP280;68291;49.602;8.722;2023-06-26T05:03:16;99361.72;;;19.81
78905;BMP280;68291;49.602;8.722;2023-06-26T05:06:01;99366.28;;;19.88
78905;BMP280;68291;49.602;8.722;2023-06-26T05:08:43;99358.34;;;19.99
78905;BMP280;68291;49.602;8.722;2023-06-26T05:11:34;99366.09;;;20.10
78905;BMP280;68291;49.602;8.722;2023-06-26T05:14:21;99362.84;;;20.17
78905;BMP280;68291;49.602;8.722;2023-06-26T05:17:08;99369.78;;;20.27
78905;BMP280;68291;49.602;8.722;2023-06-26T05:19:45;99357.41;;;20.39
78905;BMP280;68291;49.602;8.722;2023-06-26T05:22:36;99358.13;;;20.50
78905;BMP280;68291;49.602;8.722;2023-06-26T05:25:31;99358.03;;;20.61
78905;BMP280;68291;49.602;8.722;2023-06-26T05:28:11;99358.88;;;20.71
78905;BMP280;68291;49.602;8.722;2023-06-26T05:30:46;99348.41;;;20.80
78905;BMP280;68291;49.602;8.722;2023-06-26T05:33:35;99339.91;;;20.88
78905;BMP280;68291;49.602;8.722;2023-06-26T05:36:19;99341.69;;;20.96
78905;BMP280;68291;49.602;8.722;2023-06-26T05:39:01;99345.81;;;21.08
78905;BMP280;68291;49.602;8.722;2023-06-26T05:41:45;99334.78;;;21.14
78905;BMP280;68291;49.602;8.722;2023-06-26T05:44:30;99351.72;;;21.29
78905;BMP280;68291;49.602;8.722;2023-06-26T05:47:11;99349.00;;;21.40
78905;BMP280;68291;49.602;8.722;2023-06-26T05:49:46;99344.84;;;21.47
78905;BMP280;68291;49.602;8.722;2023-06-26T05:52:50;99329.66;;;21.50
78905;BMP280;68291;49.602;8.722;2023-06-26T05:55:40;99346.75;;;21.63
78905;BMP280;68291;49.602;8.722;2023-06-26T05:58:24;99355.81;;;21.78
78905;BMP280;68291;49.602;8.722;2023-06-26T06:01:15;99341.44;;;21.82
78905;BMP280;68291;49.602;8.722;2023-06-26T06:03:49;99351.16;;;21.99
78905;BMP280;68291;49.602;8.722;2023-06-26T06:06:46;99354.56;;;22.09
78905;BMP280;68291;49.602;8.722;2023-06-26T06:09:22;99357.88;;;22.20
78905;BMP280;68291;49.602;8.722;2023-06-26T06:12:14;99348.97;;;22.31
78905;BMP280;68291;49.602;8.722;2023-06-26T06:14:56;99352.41;;;22.40
78905;BMP280;68291;49.602;8.722;2023-06-26T06:17:35;99352.06;;;22.53
78905;BMP280;68291;49.602;8.722;2023-06-26T06:20:31;99351.00;;;22.63
78905;BMP280;68291;49.602;8.722;2023-06-26T06:23:14;99356.03;;;22.74
78905;BMP280;68291;49.602;8.722;2023-06-26T06:25:59;99353.34;;;22.83
78905;BMP280;68291;49.602;8.722;2023-06-26T06:28:44;99353.69;;;22.98
78905;BMP280;68291;49.602;8.722;2023-06-26T06:31:16;99360.38;;;23.09
78905;BMP280;68291;49.602;8.722;2023-06-26T06:33:56;99351.44;;;23.20
78905;BMP280;68291;49.602;8.722;2023-06-26T06:36:39;99358.75;;;23.34
78905;BMP280;68291;49.602;8.722;2023-06-26T06:39:14;99353.13;;;23.46
78905;BMP280;68291;49.602;8.722;2023-06-26T06:42:13;99359.78;;;23.58
78905;BMP280;68291;49.602;8.722;2023-06-26T06:44:58;99350.69;;;23.70
78905;BMP280;68291;49.602;8.722;2023-06-26T06:47:44;99353.41;;;23.85
78905;BMP280;68291;49.602;8.722;2023-06-26T06:50:15;99348.94;;;24.03
78905;BMP280;68291;49.602;8.722;2023-06-26T06:52:50;99340.50;;;24.25
78905;BMP280;68291;49.602;8.722;2023-06-26T06:55:33;99345.19;;;24.46
78905;BMP280;68291;49.602;8.722;2023-06-26T06:58:18;99331.09;;;24.71
78905;BMP280;68291;49.602;8.722;2023-06-26T07:01:06;99320.28;;;24.90
78905;BMP280;68291;49.602;8.722;2023-06-26T07:04:08;99327.22;;;25.07
78905;BMP280;68291;49.602;8.722;2023-06-26T07:06:45;99297.75;;;25.11
78905;BMP280;68291;49.602;8.722;2023-06-26T07:09:25;99326.22;;;25.39
78905;BMP280;68291;49.602;8.722;2023-06-26T07:12:01;99317.34;;;25.56
78905;BMP280;68291;49.602;8.722;2023-06-26T07:14:53;99317.66;;;25.69
78905;BMP280;68291;49.602;8.722;2023-06-26T07:17:47;99314.97;;;25.84
78905;BMP280;68291;49.602;8.722;2023-06-26T07:20:43;99315.25;;;25.97
78905;BMP280;68291;49.602;8.722;2023-06-26T07:23:30;99311.25;;;26.09
78905;BMP280;68291;49.602;8.722;2023-06-26T07:26:04;99312.56;;;26.21
78905;BMP280;68291;49.602;8.722;2023-06-26T07:28:49;99318.59;;;26.37
78905;BMP280;68291;49.602;8.722;2023-06-26T07:31:30;99312.69;;;26.57
78905;BMP280;68291;49.602;8.722;2023-06-26T07:34:09;99307.66;;;26.78
78905;BMP280;68291;49.602;8.722;2023-06-26T07:36:53;99308.19;;;26.96
78905;BMP280;68291;49.602;8.722;2023-06-26T07:39:27;99303.25;;;27.15
78905;BMP280;68291;49.602;8.722;2023-06-26T07:42:16;99310.84;;;27.32
78905;BMP280;68291;49.602;8.722;2023-06-26T07:44:53;99315.22;;;27.48
78905;BMP280;68291;49.602;8.722;2023-06-26T07:47:40;99322.53;;;27.60
78905;BMP280;68291;49.602;8.722;2023-06-26T07:50:13;99321.06;;;27.72
78905;BMP280;68291;49.602;8.722;2023-06-26T07:52:53;99311.69;;;27.84
78905;BMP280;68291;49.602;8.722;2023-06-26T07:55:48;99324.47;;;27.94
78905;BMP280;68291;49.602;8.722;2023-06-26T07:58:40;99319.75;;;28.04
78905;BMP280;68291;49.602;8.722;2023-06-26T08:01:31;99319.03;;;28.10
78905;BMP280;68291;49.602;8.722;2023-06-26T08:04:30;99319.38;;;28.22
78905;BMP280;68291;49.602;8.722;2023-06-26T08:07:20;99321.09;;;28.29
78905;BMP280;68291;49.602;8.722;2023-06-26T08:10:01;99318.97;;;28.39
78905;BMP280;68291;49.602;8.722;2023-06-26T08:12:47;99324.81;;;28.49
78905;BMP280;68291;49.602;8.722;2023-06-26T08:15:20;99323.56;;;28.59
78905;BMP280;68291;49.602;8.722;2023-06-26T08:18:08;99324.25;;;28.67
78905;BMP280;68291;49.602;8.722;2023-06-26T08:21:25;99331.66;;;28.72
78905;BMP280;68291;49.602;8.722;2023-06-26T08:24:21;99334.38;;;28.78
78905;BMP280;68291;49.602;8.722;2023-06-26T08:27:03;99345.47;;;28.88
78905;BMP280;68291;49.602;8.722;2023-06-26T08:29:42;99337.41;;;28.96
78905;BMP280;68291;49.602;8.722;2023-06-26T08:32:21;99338.94;;;29.05
78905;BMP280;68291;49.602;8.722;2023-06-26T08:34:52;99337.63;;;29.15
78905;BMP280;68291;49.602;8.722;2023-06-26T08:37:58;99335.03;;;29.22
78905;BMP280;68291;49.602;8.722;2023-06-26T08:40:33;99333.72;;;29.32
78905;BMP280;68291;49.602;8.722;2023-06-26T08:43:05;99338.94;;;29.46
78905;BMP280;68291;49.602;8.722;2023-06-26T08:45:45;99343.66;;;29.51
78905;BMP280;68291;49.602;8.722;2023-06-26T08:48:24;99350.03;;;29.56
78905;BMP280;68291;49.602;8.722;2023-06-26T08:51:02;99333.03;;;29.51
78905;BMP280;68291;49.602;8.722;2023-06-26T08:53:55;99349.28;;;29.62
78905;BMP280;68291;49.602;8.722;2023-06-26T08:56:46;99345.50;;;29.71
78905;BMP280;68291;49.602;8.722;2023-06-26T08:59:48;99351.66;;;29.78
78905;BMP280;68291;49.602;8.722;2023-06-26T09:02:31;99360.72;;;29.83
78905;BMP280;68291;49.602;8.722;2023-06-26T09:05:06;99357.06;;;29.91
78905;BMP280;68291;49.602;8.722;2023-06-26T09:07:48;99346.09;;;30.00
78905;BMP280;68291;49.602;8.722;2023-06-26T09:10:35;99351.69;;;30.11
78905;BMP280;68291;49.602;8.722;2023-06-26T09:13:08;99353.63;;;30.24
78905;BMP280;68291;49.602;8.722;2023-06-26T09:16:07;99334.81;;;30.25
78905;BMP280;68291;49.602;8.722;2023-06-26T09:18:40;99361.06;;;30.41
78905;BMP280;68291;49.602;8.722;2023-06-26T09:21:25;99367.59;;;30.38
78905;BMP280;68291;49.602;8.722;2023-06-26T09:23:56;99353.69;;;30.36
78905;BMP280;68291;49.602;8.722;2023-06-26T09:26:35;99351.91;;;30.43
78905;BMP280;68291;49.602;8.722;2023-06-26T09:29:07;99349.28;;;30.50
78905;BMP280;68291;49.602;8.722;2023-06-26T09:32:03;99345.19;;;30.60
78905;BMP280;68291;49.602;8.722;2023-06-26T09:34:58;99352.22;;;30.74
78905;BMP280;68291;49.602;8.722;2023-06-26T09:37:37;99361.69;;;30.83
78905;BMP280;68291;49.602;8.722;2023-06-26T09:40:26;99353.09;;;30.87
78905;BMP280;68291;49.602;8.722;2023-06-26T09:43:25;99356.38;;;30.89
78905;BMP280;68291;49.602;8.722;2023-06-26T09:46:16;99373.16;;;30.90
78905;BMP280;68291;49.602;8.722;2023-06-26T09:49:04;99362.50;;;30.90
78905;BMP280;68291;49.602;8.722;2023-06-26T09:51:53;99352.94;;;30.95
78905;BMP280;68291;49.602;8.722;2023-06-26T09:54:38;99351.09;;;31.02
78905;BMP280;68291;49.602;8.722;2023-06-26T09:57:21;99343.75;;;31.10
78905;BMP280;68291;49.602;8.722;2023-06-26T10:00:04;99331.06;;;31.19
78905;BMP280;68291;49.602;8.722;2023-06-26T10:02:58;99341.75;;;31.32
78905;BMP280;68291;49.602;8.722;2023-06-26T10:05:40;99334.78;;;31.43
78905;BMP280;68291;49.602;8.722;2023-06-26T10:08:47;99361.03;;;31.59
78905;BMP280;68291;49.602;8.722;2023-06-26T10:11:41;99342.75;;;31.69
78905;BMP280;68291;49.602;8.722;2023-06-26T10:14:19;99340.50;;;31.79
78905;BMP280;68291;49.602;8.722;2023-06-26T10:16:58;99338.47;;;31.94
78905;BMP280;68291;49.602;8.722;2023-06-26T10:19:50;99329.03;;;31.98
78905;BMP280;68291;49.602;8.722;2023-06-26T10:22:31;99343.78;;;32.07
78905;BMP280;68291;49.602;8.722;2023-06-26T10:25:20;99350.75;;;32.08
78905;BMP280;68291;49.602;8.722;2023-06-26T10:28:08;99342.75;;;32.08
78905;BMP280;68291;49.602;8.722;2023-06-26T10:30:57;99341.66;;;32.21
78905;BMP280;68291;49.602;8.722;2023-06-26T10:33:56;99339.59;;;32.30
78905;BMP280;68291;49.602;8.722;2023-06-26T10:36:45;99360.53;;;32.26
78905;BMP280;68291;49.602;8.722;2023-06-26T10:39:18;99356.22;;;32.25
78905;BMP280;68291;49.602;8.722;2023-06-26T10:42:10;99353.16;;;32.22
78905;BMP280;68291;49.602;8.722;2023-06-26T10:44:46;99362.16;;;32.27
78905;BMP280;68291;49.602;8.722;2023-06-26T10:47:31;99363.81;;;32.28
78905;BMP280;68291;49.602;8.722;2023-06-26T10:50:34;99363.81;;;32.35
78905;BMP280;68291;49.602;8.722;2023-06-26T10:53:23;99371.41;;;32.31
78905;BMP280;68291;49.602;8.722;2023-06-26T10:56:00;99374.06;;;32.31
78905;BMP280;68291;49.602;8.722;2023-06-26T10:58:43;99379.38;;;32.38
78905;BMP280;68291;49.602;8.722;2023-06-26T11:01:29;99387.53;;;32.49
78905;BMP280;68291;49.602;8.722;2023-06-26T11:04:13;99381.38;;;32.55
78905;BMP280;68291;49.602;8.722;2023-06-26T11:07:17;99377.69;;;32.62
78905;BMP280;68291;49.602;8.722;2023-06-26T11:10:02;99378.22;;;32.71
78905;BMP280;68291;49.602;8.722;2023-06-26T11:12:55;99376.78;;;32.81
78905;BMP280;68291;49.602;8.722;2023-06-26T11:15:32;99374.91;;;32.81
78905;BMP280;68291;49.602;8.722;2023-06-26T11:18:13;99370.44;;;32.82
78905;BMP280;68291;49.602;8.722;2023-06-26T11:20:49;99367.97;;;32.80
78905;BMP280;68291;49.602;8.722;2023-06-26T11:23:41;99372.84;;;32.83
78905;BMP280;68291;49.602;8.722;2023-06-26T11:26:20;99368.13;;;32.79
78905;BMP280;68291;49.602;8.722;2023-06-26T11:29:03;99380.91;;;32.64
78905;BMP280;68291;49.602;8.722;2023-06-26T11:31:43;99376.47;;;32.52
78905;BMP280;68291;49.602;8.722;2023-06-26T11:34:30;99388.81;;;32.40
78905;BMP280;68291;49.602;8.722;2023-06-26T11:37:06;99385.97;;;32.35
78905;BMP280;68291;49.602;8.722;2023-06-26T11:40:19;99383.88;;;32.43
78905;BMP280;68291;49.602;8.722;2023-06-26T11:43:10;99367.44;;;32.53
78905;BMP280;68291;49.602;8.722;2023-06-26T11:46:09;99375.22;;;32.61
78905;BMP280;68291;49.602;8.722;2023-06-26T11:48:54;99380.53;;;32.61
78905;BMP280;68291;49.602;8.722;2023-06-26T11:51:47;99388.53;;;32.61
78905;BMP280;68291;49.602;8.722;2023-06-26T11:54:34;99373.31;;;32.68
78905;BMP280;68291;49.602;8.722;2023-06-26T11:57:48;99370.28;;;32.58
78905;BMP280;68291;49.602;8.722;2023-06-26T12:00:47;99372.28;;;32.69
78905;BMP280;68291;49.602;8.722;2023-06-26T12:03:34;99362.00;;;32.78
78905;BMP280;68291;49.602;8.722;2023-06-26T12:06:25;99359.88;;;32.93
78905;BMP280;68291;49.602;8.722;2023-06-26T12:08:58;99368.44;;;33.08
78905;BMP280;68291;49.602;8.722;2023-06-26T12:11:44;99373.78;;;33.08
78905;BMP280;68291;49.602;8.722;2023-06-26T12:14:22;99365.75;;;33.08
78905;BMP280;68291;49.602;8.722;2023-06-26T12:17:16;99372.91;;;33.14
78905;BMP280;68291;49.602;8.722;2023-06-26T12:19:56;99353.38;;;33.13
78905;BMP280;68291;49.602;8.722;2023-06-26T12:22:51;99350.75;;;33.07
78905;BMP280;68291;49.602;8.722;2023-06-26T12:25:33;99338.25;;;33.08
78905;BMP280;68291;49.602;8.722;2023-06-26T12:28:18;99347.00;;;33.21
78905;BMP280;68291;49.602;8.722;2023-06-26T12:31:21;99349.81;;;33.26
78905;BMP280;68291;49.602;8.722;2023-06-26T12:33:55;99347.00;;;33.21
78905;BMP280;68291;49.602;8.722;2023-06-26T12:36:45;99360.03;;;33.35
78905;BMP280;68291;49.602;8.722;2023-06-26T12:39:19;99348.09;;;33.44
78905;BMP280;68291;49.602;8.722;2023-06-26T12:42:06;99350.09;;;33.48
78905;BMP280;68291;49.602;8.722;2023-06-26T12:44:40;99351.63;;;33.62
78905;BMP280;68291;49.602;8.722;2023-06-26T12:47:24;99351.13;;;33.96
78905;BMP280;68291;49.602;8.722;2023-06-26T12:50:06;99348.59;;;34.43
78905;BMP280;68291;49.602;8.722;2023-06-26T12:52:39;99340.75;;;35.06
78905;BMP280;68291;49.602;8.722;2023-06-26T12:55:20;99337.63;;;35.60
78905;BMP280;68291;49.602;8.722;2023-06-26T12:58:09;99348.28;;;35.78
78905;BMP280;68291;49.602;8.722;2023-06-26T13:01:09;99346.44;;;35.79
78905;BMP280;68291;49.602;8.722;2023-06-26T13:04:16;99351.06;;;35.94
78905;BMP280;68291;49.602;8.722;2023-06-26T13:06:57;99353.97;;;35.93
78905;BMP280;68291;49.602;8.722;2023-06-26T13:09:42;99342.91;;;35.67
78905;BMP280;68291;49.602;8.722;2023-06-26T13:12:16;99349.66;;;35.69
78905;BMP280;68291;49.602;8.722;2023-06-26T13:15:07;99354.47;;;35.79
78905;BMP280;68291;49.602;8.722;2023-06-26T13:17:48;99350.28;;;35.94
78905;BMP280;68291;49.602;8.722;2023-06-26T13:20:47;99354.69;;;36.11
78905;BMP280;68291;49.602;8.722;2023-06-26T13:23:25;99354.56;;;36.29
78905;BMP280;68291;49.602;8.722;2023-06-26T13:26:14;99352.59;;;36.25
78905;BMP280;68291;49.602;8.722;2023-06-26T13:29:06;99355.50;;;36.23
78905;BMP280;68291;49.602;8.722;2023-06-26T13:31:52;99352.34;;;36.37
78905;BMP280;68291;49.602;8.722;2023-06-26T13:34:43;99354.66;;;36.45
78905;BMP280;68291;49.602;8.722;2023-06-26T13:37:41;99349.50;;;36.55
78905;BMP280;68291;49.602;8.722;2023-06-26T13:40:26;99366.06;;;36.52
78905;BMP280;68291;49.602;8.722;2023-06-26T13:43:09;99369.13;;;36.56
78905;BMP280;68291;49.602;8.722;2023-06-26T13:46:03;99379.63;;;36.57
78905;BMP280;68291;49.602;8.722;2023-06-26T13:48:54;99369.25;;;36.61
78905;BMP280;68291;49.602;8.722;2023-06-26T13:51:29;99363.16;;;36.65
78905;BMP280;68291;49.602;8.722;2023-06-26T13:54:22;99372.31;;;36.80
78905;BMP280;68291;49.602;8.722;2023-06-26T13:57:04;99355.53;;;37.12
78905;BMP280;68291;49.602;8.722;2023-06-26T13:59:51;99351.97;;;37.39
78905;BMP280;68291;49.602;8.722;2023-06-26T14:02:41;99365.88;;;37.20
78905;BMP280;68291;49.602;8.722;2023-06-26T14:05:16;99359.72;;;37.08
78905;BMP280;68291;49.602;8.722;2023-06-26T14:08:04;99360.47;;;37.04
78905;BMP280;68291;49.602;8.722;2023-06-26T14:10:56;99378.78;;;36.96
78905;BMP280;68291;49.602;8.722;2023-06-26T14:13:37;99361.53;;;36.92
78905;BMP280;68291;49.602;8.722;2023-06-26T14:16:20;99365.63;;;37.22
78905;BMP280;68291;49.602;8.722;2023-06-26T14:19:15;99363.03;;;37.43
78905;BMP280;68291;49.602;8.722;2023-06-26T14:21:55;99396.25;;;37.48
78905;BMP280;68291;49.602;8.722;2023-06-26T14:24:35;99369.16;;;37.22
78905;BMP280;68291;49.602;8.722;2023-06-26T14:27:31;99376.09;;;36.96
78905;BMP280;68291;49.602;8.722;2023-06-26T14:30:20;99374.19;;;36.80
78905;BMP280;68291;49.602;8.722;2023-06-26T14:32:52;99383.69;;;36.71
78905;BMP280;68291;49.602;8.722;2023-06-26T14:35:38;99392.09;;;36.52
78905;BMP280;68291;49.602;8.722;2023-06-26T14:38:20;99390.97;;;36.14
78905;BMP280;68291;49.602;8.722;2023-06-26T14:41:05;99386.75;;;35.84
78905;BMP280;68291;49.602;8.722;2023-06-26T14:43:57;99386.91;;;35.48
78905;BMP280;68291;49.602;8.722;2023-06-26T14:46:30;99381.28;;;35.38
78905;BMP280;68291;49.602;8.722;2023-06-26T14:49:10;99398.50;;;35.31
78905;BMP280;68291;49.602;8.722;2023-06-26T14:51:54;99409.66;;;35.28
78905;BMP280;68291;49.602;8.722;2023-06-26T14:54:41;99405.56;;;34.96
78905;BMP280;68291;49.602;8.722;2023-06-26T14:57:15;99397.66;;;34.66
78905;BMP280;68291;49.602;8.722;2023-06-26T15:00:40;99381.50;;;34.43
78905;BMP280;68291;49.602;8.722;2023-06-26T15:03:13;99390.88;;;34.34
78905;BMP280;68291;49.602;8.722;2023-06-26T15:05:43;99389.00;;;34.35
78905;BMP280;68291;49.602;8.722;2023-06-26T15:08:24;99393.28;;;34.36
78905;BMP280;68291;49.602;8.722;2023-06-26T15:11:05;99402.59;;;34.51
78905;BMP280;68291;49.602;8.722;2023-06-26T15:13:52;99387.53;;;34.39
78905;BMP280;68291;49.602;8.722;2023-06-26T15:17:07;99393.59;;;34.04
78905;BMP280;68291;49.602;8.722;2023-06-26T15:19:40;99400.13;;;33.90
78905;BMP280;68291;49.602;8.722;2023-06-26T15:22:18;99401.78;;;34.09
78905;BMP280;68291;49.602;8.722;2023-06-26T15:24:59;99395.75;;;34.37
78905;BMP280;68291;49.602;8.722;2023-06-26T15:27:34;99407.88;;;34.40
78905;BMP280;68291;49.602;8.722;2023-06-26T15:30:29;99408.00;;;34.45
78905;BMP280;68291;49.602;8.722;2023-06-26T15:33:06;99406.63;;;34.78
78905;BMP280;68291;49.602;8.722;2023-06-26T15:35:45;99406.97;;;35.28
78905;BMP280;68291;49.602;8.722;2023-06-26T15:38:21;99415.63;;;35.70
78905;BMP280;68291;49.602;8.722;2023-06-26T15:40:59;99417.75;;;36.02
78905;BMP280;68291;49.602;8.722;2023-06-26T15:43:36;99409.94;;;36.01
78905;BMP280;68291;49.602;8.722;2023-06-26T15:46:26;99422.06;;;36.03
78905;BMP280;68291;49.602;8.722;2023-06-26T15:49:11;99421.94;;;36.10
78905;BMP280;68291;49.602;8.722;2023-06-26T15:51:46;99420.91;;;36.11